sensor_id;sensor_type;location;lat;lon;timestamp;P1;durP1;ratioP1;P2;durP2;ratioP2
239;SDS011;104;53.590;10.004;2022-11-02T00:00:46;53.07;;;24.27;;
239;SDS011;104;53.590;10.004;2022-11-02T00:03:13;56.40;;;23.67;;
239;SDS011;104;53.590;10.004;2022-11-02T00:05:42;59.70;;;21.90;;
239;SDS011;104;53.590;10.004;2022-11-02T00:08:09;50.03;;;22.20;;
239;SDS011;104;53.590;10.004;2022-11-02T00:10:36;60.50;;;22.50;;
239;SDS011;104;53.590;10.004;2022-11-02T00:13:03;58.77;;;21.43;;
239;SDS011;104;53.590;10.004;2022-11-02T00:15:32;43.13;;;22.60;;
239;SDS011;104;53.590;10.004;2022-11-02T00:18:01;40.30;;;20.93;;
239;SDS011;104;53.590;10.004;2022-11-02T00:20:30;41.80;;;19.50;;
239;SDS011;104;53.590;10.004;2022-11-02T00:22:59;43.20;;;20.77;;
239;SDS011;104;53.590;10.004;2022-11-02T00:25:28;36.33;;;19.93;;
239;SDS011;104;53.590;10.004;2022-11-02T00:27:56;48.40;;;20.07;;
239;SDS011;104;53.590;10.004;2022-11-02T00:30:23;42.60;;;21.83;;
239;SDS011;104;53.590;10.004;2022-11-02T00:32:50;46.37;;;24.97;;
239;SDS011;104;53.590;10.004;2022-11-02T00:35:17;51.33;;;21.20;;
239;SDS011;104;53.590;10.004;2022-11-02T00:37:45;49.83;;;21.33;;
239;SDS011;104;53.590;10.004;2022-11-02T00:40:13;47.00;;;21.23;;
239;SDS011;104;53.590;10.004;2022-11-02T00:42:42;32.93;;;20.00;;
239;SDS011;104;53.590;10.004;2022-11-02T00:45:09;39.13;;;21.40;;
239;SDS011;104;53.590;10.004;2022-11-02T00:47:36;35.87;;;18.90;;
239;SDS011;104;53.590;10.004;2022-11-02T00:50:04;34.97;;;19.60;;
239;SDS011;104;53.590;10.004;2022-11-02T00:52:32;35.17;;;19.90;;
239;SDS011;104;53.590;10.004;2022-11-02T00:54:59;37.27;;;19.97;;
239;SDS011;104;53.590;10.004;2022-11-02T00:57:27;40.53;;;20.67;;
239;SDS011;104;53.590;10.004;2022-11-02T00:59:55;38.23;;;19.27;;
239;SDS011;104;53.590;10.004;2022-11-02T01:02:22;35.77;;;20.20;;
239;SDS011;104;53.590;10.004;2022-11-02T01:04:49;43.87;;;20.17;;
239;SDS011;104;53.590;10.004;2022-11-02T01:07:16;39.63;;;20.73;;
239;SDS011;104;53.590;10.004;2022-11-02T01:09:43;50.30;;;19.90;;
239;SDS011;104;53.590;10.004;2022-11-02T01:12:10;44.90;;;20.37;;
239;SDS011;104;53.590;10.004;2022-11-02T01:14:39;38.30;;;21.07;;
239;SDS011;104;53.590;10.004;2022-11-02T01:17:06;58.37;;;21.10;;
239;SDS011;104;53.590;10.004;2022-11-02T01:19:33;51.53;;;22.40;;
239;SDS011;104;53.590;10.004;2022-11-02T01:22:00;53.33;;;20.63;;
239;SDS011;104;53.590;10.004;2022-11-02T01:24:28;40.70;;;22.10;;
239;SDS011;104;53.590;10.004;2022-11-02T01:26:55;41.47;;;20.83;;
239;SDS011;104;53.590;10.004;2022-11-02T01:29:23;34.40;;;19.47;;
239;SDS011;104;53.590;10.004;2022-11-02T01:31:51;34.87;;;18.67;;
239;SDS011;104;53.590;10.004;2022-11-02T01:34:19;58.07;;;19.20;;
239;SDS011;104;53.590;10.004;2022-11-02T01:36:46;33.13;;;18.07;;
239;SDS011;104;53.590;10.004;2022-11-02T01:39:15;35.20;;;18.10;;
239;SDS011;104;53.590;10.004;2022-11-02T01:41:42;30.40;;;16.73;;
239;SDS011;104;53.590;10.004;2022-11-02T01:44:25;31.40;;;17.50;;
239;SDS011;104;53.590;10.004;2022-11-02T01:46:57;31.13;;;17.97;;
239;SDS011;104;53.590;10.004;2022-11-02T01:49:26;33.00;;;17.80;;
239;SDS011;104;53.590;10.004;2022-11-02T01:51:58;44.27;;;18.33;;
239;SDS011;104;53.590;10.004;2022-11-02T01:54:30;30.00;;;17.87;;
239;SDS011;104;53.590;10.004;2022-11-02T01:57:03;26.10;;;16.70;;
239;SDS011;104;53.590;10.004;2022-11-02T01:59:32;42.10;;;19.03;;
239;SDS011;104;53.590;10.004;2022-11-02T02:02:07;34.90;;;18.47;;
239;SDS011;104;53.590;10.004;2022-11-02T02:04:41;29.23;;;17.30;;
239;SDS011;104;53.590;10.004;2022-11-02T02:07:09;31.80;;;17.80;;
239;SDS011;104;53.590;10.004;2022-11-02T02:09:39;45.10;;;17.50;;
239;SDS011;104;53.590;10.004;2022-11-02T02:12:07;35.30;;;17.27;;
239;SDS011;104;53.590;10.004;2022-11-02T02:14:35;54.17;;;18.17;;
239;SDS011;104;53.590;10.004;2022-11-02T02:17:09;66.87;;;17.83;;
239;SDS011;104;53.590;10.004;2022-11-02T02:19:39;41.47;;;18.73;;
239;SDS011;104;53.590;10.004;2022-11-02T02:22:15;37.77;;;17.77;;
239;SDS011;104;53.590;10.004;2022-11-02T02:24:48;63.77;;;18.73;;
239;SDS011;104;53.590;10.004;2022-11-02T02:27:20;36.87;;;17.70;;
239;SDS011;104;53.590;10.004;2022-11-02T02:29:56;55.60;;;18.83;;
239;SDS011;104;53.590;10.004;2022-11-02T02:32:29;40.83;;;18.50;;
239;SDS011;104;53.590;10.004;2022-11-02T02:34:58;35.63;;;18.07;;
239;SDS011;104;53.590;10.004;2022-11-02T02:37:30;47.87;;;18.40;;
239;SDS011;104;53.590;10.004;2022-11-02T02:40:03;55.63;;;18.40;;
239;SDS011;104;53.590;10.004;2022-11-02T02:42:32;34.00;;;18.27;;
239;SDS011;104;53.590;10.004;2022-11-02T02:45:04;32.90;;;16.50;;
239;SDS011;104;53.590;10.004;2022-11-02T02:47:35;27.57;;;16.43;;
239;SDS011;104;53.590;10.004;2022-11-02T02:50:07;24.67;;;15.87;;
239;SDS011;104;53.590;10.004;2022-11-02T02:52:37;29.40;;;16.70;;
239;SDS011;104;53.590;10.004;2022-11-02T02:55:08;26.90;;;16.03;;
239;SDS011;104;53.590;10.004;2022-11-02T02:57:40;32.53;;;15.87;;
239;SDS011;104;53.590;10.004;2022-11-02T03:00:13;34.70;;;17.40;;
239;SDS011;104;53.590;10.004;2022-11-02T03:02:42;27.53;;;16.70;;
239;SDS011;104;53.590;10.004;2022-11-02T03:05:26;24.30;;;15.83;;
239;SDS011;104;53.590;10.004;2022-11-02T03:07:55;27.50;;;15.97;;
239;SDS011;104;53.590;10.004;2022-11-02T03:10:27;38.23;;;15.53;;
239;SDS011;104;53.590;10.004;2022-11-02T03:13:00;27.07;;;16.87;;
239;SDS011;104;53.590;10.004;2022-11-02T03:15:39;29.17;;;15.87;;
239;SDS011;104;53.590;10.004;2022-11-02T03:18:12;26.20;;;16.20;;
239;SDS011;104;53.590;10.004;2022-11-02T03:20:43;27.27;;;15.47;;
239;SDS011;104;53.590;10.004;2022-11-02T03:23:15;24.40;;;15.23;;
239;SDS011;104;53.590;10.004;2022-11-02T03:25:49;27.13;;;15.57;;
239;SDS011;104;53.590;10.004;2022-11-02T03:28:24;30.70;;;16.43;;
239;SDS011;104;53.590;10.004;2022-11-02T03:30:56;27.97;;;16.10;;
239;SDS011;104;53.590;10.004;2022-11-02T03:33:46;33.57;;;15.67;;
239;SDS011;104;53.590;10.004;2022-11-02T03:36:21;25.43;;;15.83;;
239;SDS011;104;53.590;10.004;2022-11-02T03:38:55;25.37;;;14.97;;
239;SDS011;104;53.590;10.004;2022-11-02T03:41:26;24.70;;;15.80;;
239;SDS011;104;53.590;10.004;2022-11-02T03:43:57;25.77;;;15.90;;
239;SDS011;104;53.590;10.004;2022-11-02T03:46:32;28.87;;;15.43;;
239;SDS011;104;53.590;10.004;2022-11-02T03:49:01;24.17;;;15.00;;
239;SDS011;104;53.590;10.004;2022-11-02T03:51:31;22.20;;;14.37;;
239;SDS011;104;53.590;10.004;2022-11-02T03:54:04;24.13;;;15.30;;
239;SDS011;104;53.590;10.004;2022-11-02T03:56:36;21.60;;;14.57;;
239;SDS011;104;53.590;10.004;2022-11-02T03:59:09;28.47;;;15.57;;
239;SDS011;104;53.590;10.004;2022-11-02T04:01:40;25.20;;;14.23;;
239;SDS011;104;53.590;10.004;2022-11-02T04:04:10;21.40;;;13.70;;
239;SDS011;104;53.590;10.004;2022-11-02T04:06:37;23.27;;;14.63;;
239;SDS011;104;53.590;10.004;2022-11-02T04:09:07;26.47;;;14.30;;
239;SDS011;104;53.590;10.004;2022-11-02T04:11:36;22.93;;;14.50;;
239;SDS011;104;53.590;10.004;2022-11-02T04:14:21;22.90;;;13.90;;
239;SDS011;104;53.590;10.004;2022-11-02T04:17:07;25.37;;;14.60;;
239;SDS011;104;53.590;10.004;2022-11-02T04:19:52;20.50;;;13.87;;
239;SDS011;104;53.590;10.004;2022-11-02T04:22:20;23.73;;;14.90;;
239;SDS011;104;53.590;10.004;2022-11-02T04:25:06;29.70;;;14.73;;
239;SDS011;104;53.590;10.004;2022-11-02T04:27:42;28.70;;;15.57;;
239;SDS011;104;53.590;10.004;2022-11-02T04:30:13;26.67;;;15.30;;
239;SDS011;104;53.590;10.004;2022-11-02T04:32:43;22.40;;;14.57;;
239;SDS011;104;53.590;10.004;2022-11-02T04:35:28;23.20;;;13.87;;
239;SDS011;104;53.590;10.004;2022-11-02T04:37:57;24.40;;;14.13;;
239;SDS011;104;53.590;10.004;2022-11-02T04:40:42;20.60;;;13.33;;
239;SDS011;104;53.590;10.004;2022-11-02T04:43:10;29.17;;;15.00;;
239;SDS011;104;53.590;10.004;2022-11-02T04:55:56;25.60;;;14.53;;
239;SDS011;104;53.590;10.004;2022-11-02T04:58:23;20.90;;;13.57;;
239;SDS011;104;53.590;10.004;2022-11-02T05:00:51;23.10;;;13.73;;
239;SDS011;104;53.590;10.004;2022-11-02T05:03:18;22.53;;;13.50;;
239;SDS011;104;53.590;10.004;2022-11-02T05:05:45;23.23;;;13.90;;
239;SDS011;104;53.590;10.004;2022-11-02T05:08:14;22.57;;;12.97;;
239;SDS011;104;53.590;10.004;2022-11-02T05:10:41;21.13;;;13.90;;
239;SDS011;104;53.590;10.004;2022-11-02T05:13:11;25.37;;;13.33;;
239;SDS011;104;53.590;10.004;2022-11-02T05:15:38;26.13;;;13.87;;
239;SDS011;104;53.590;10.004;2022-11-02T05:18:06;28.40;;;14.60;;
239;SDS011;104;53.590;10.004;2022-11-02T05:20:33;29.53;;;15.03;;
239;SDS011;104;53.590;10.004;2022-11-02T05:23:01;24.00;;;14.23;;
239;SDS011;104;53.590;10.004;2022-11-02T05:25:30;26.43;;;15.33;;
239;SDS011;104;53.590;10.004;2022-11-02T05:27:58;26.77;;;14.67;;
239;SDS011;104;53.590;10.004;2022-11-02T05:30:27;24.83;;;14.90;;
239;SDS011;104;53.590;10.004;2022-11-02T05:32:57;26.97;;;14.77;;
239;SDS011;104;53.590;10.004;2022-11-02T05:35:26;27.70;;;14.60;;
239;SDS011;104;53.590;10.004;2022-11-02T05:38:01;25.43;;;14.73;;
239;SDS011;104;53.590;10.004;2022-11-02T05:40:42;27.03;;;15.90;;
239;SDS011;104;53.590;10.004;2022-11-02T05:43:12;28.67;;;15.23;;
239;SDS011;104;53.590;10.004;2022-11-02T05:45:43;30.60;;;14.40;;
239;SDS011;104;53.590;10.004;2022-11-02T05:48:24;62.83;;;19.87;;
239;SDS011;104;53.590;10.004;2022-11-02T05:50:57;29.43;;;15.07;;
239;SDS011;104;53.590;10.004;2022-11-02T05:53:40;28.00;;;14.33;;
239;SDS011;104;53.590;10.004;2022-11-02T05:56:42;21.47;;;13.60;;
239;SDS011;104;53.590;10.004;2022-11-02T05:59:21;22.63;;;12.43;;
239;SDS011;104;53.590;10.004;2022-11-02T06:10:30;28.87;;;13.80;;
239;SDS011;104;53.590;10.004;2022-11-02T06:13:07;23.53;;;13.03;;
239;SDS011;104;53.590;10.004;2022-11-02T06:15:38;25.70;;;14.27;;
239;SDS011;104;53.590;10.004;2022-11-02T06:18:05;24.33;;;14.27;;
239;SDS011;104;53.590;10.004;2022-11-02T06:20:33;27.37;;;13.10;;
239;SDS011;104;53.590;10.004;2022-11-02T06:23:06;27.10;;;13.50;;
239;SDS011;104;53.590;10.004;2022-11-02T06:36:57;25.60;;;13.50;;
239;SDS011;104;53.590;10.004;2022-11-02T06:39:27;26.37;;;13.83;;
239;SDS011;104;53.590;10.004;2022-11-02T06:41:55;25.20;;;13.10;;
239;SDS011;104;53.590;10.004;2022-11-02T06:44:28;20.53;;;12.67;;
239;SDS011;104;53.590;10.004;2022-11-02T06:46:56;19.97;;;11.77;;
239;SDS011;104;53.590;10.004;2022-11-02T06:49:23;19.90;;;11.60;;
239;SDS011;104;53.590;10.004;2022-11-02T06:51:51;17.20;;;10.97;;
239;SDS011;104;53.590;10.004;2022-11-02T06:54:25;20.03;;;11.10;;
239;SDS011;104;53.590;10.004;2022-11-02T06:57:00;17.80;;;10.87;;
239;SDS011;104;53.590;10.004;2022-11-02T06:59:43;21.63;;;13.10;;
239;SDS011;104;53.590;10.004;2022-11-02T07:02:14;20.60;;;12.30;;
239;SDS011;104;53.590;10.004;2022-11-02T07:04:57;20.50;;;12.57;;
239;SDS011;104;53.590;10.004;2022-11-02T07:08:38;29.20;;;12.30;;
239;SDS011;104;53.590;10.004;2022-11-02T07:11:14;24.10;;;13.20;;
239;SDS011;104;53.590;10.004;2022-11-02T07:16:55;25.27;;;14.27;;
239;SDS011;104;53.590;10.004;2022-11-02T07:19:30;25.47;;;13.60;;
239;SDS011;104;53.590;10.004;2022-11-02T07:22:02;27.60;;;13.80;;
239;SDS011;104;53.590;10.004;2022-11-02T07:24:30;24.77;;;12.80;;
239;SDS011;104;53.590;10.004;2022-11-02T07:26:59;23.70;;;13.33;;
239;SDS011;104;53.590;10.004;2022-11-02T07:29:27;25.50;;;12.90;;
239;SDS011;104;53.590;10.004;2022-11-02T07:31:54;35.30;;;16.27;;
239;SDS011;104;53.590;10.004;2022-11-02T07:34:22;27.83;;;15.07;;
239;SDS011;104;53.590;10.004;2022-11-02T07:36:50;25.73;;;13.60;;
239;SDS011;104;53.590;10.004;2022-11-02T07:39:18;24.43;;;12.90;;
239;SDS011;104;53.590;10.004;2022-11-02T07:41:48;25.97;;;13.90;;
239;SDS011;104;53.590;10.004;2022-11-02T07:44:21;23.03;;;13.63;;
239;SDS011;104;53.590;10.004;2022-11-02T07:46:49;26.70;;;13.47;;
239;SDS011;104;53.590;10.004;2022-11-02T07:49:17;20.00;;;12.23;;
239;SDS011;104;53.590;10.004;2022-11-02T07:51:45;26.80;;;14.10;;
239;SDS011;104;53.590;10.004;2022-11-02T07:54:13;22.30;;;14.20;;
239;SDS011;104;53.590;10.004;2022-11-02T07:56:40;20.83;;;12.20;;
239;SDS011;104;53.590;10.004;2022-11-02T07:59:08;22.87;;;12.90;;
239;SDS011;104;53.590;10.004;2022-11-02T08:01:38;24.63;;;13.53;;
239;SDS011;104;53.590;10.004;2022-11-02T08:04:05;31.00;;;13.80;;
239;SDS011;104;53.590;10.004;2022-11-02T08:06:34;21.13;;;13.10;;
239;SDS011;104;53.590;10.004;2022-11-02T08:09:03;22.43;;;12.87;;
239;SDS011;104;53.590;10.004;2022-11-02T08:11:30;24.10;;;13.60;;
239;SDS011;104;53.590;10.004;2022-11-02T08:14:04;22.10;;;12.90;;
239;SDS011;104;53.590;10.004;2022-11-02T08:16:31;23.77;;;13.67;;
239;SDS011;104;53.590;10.004;2022-11-02T08:19:08;22.40;;;13.60;;
239;SDS011;104;53.590;10.004;2022-11-02T08:21:37;24.57;;;13.83;;
239;SDS011;104;53.590;10.004;2022-11-02T08:24:05;22.50;;;12.20;;
239;SDS011;104;53.590;10.004;2022-11-02T08:26:35;20.10;;;12.50;;
239;SDS011;104;53.590;10.004;2022-11-02T08:29:03;22.83;;;12.27;;
239;SDS011;104;53.590;10.004;2022-11-02T08:31:30;24.20;;;12.90;;
239;SDS011;104;53.590;10.004;2022-11-02T08:33:58;27.53;;;13.23;;
239;SDS011;104;53.590;10.004;2022-11-02T08:42:12;23.37;;;13.97;;
239;SDS011;104;53.590;10.004;2022-11-02T08:44:40;26.83;;;13.83;;
239;SDS011;104;53.590;10.004;2022-11-02T08:47:07;18.50;;;11.80;;
239;SDS011;104;53.590;10.004;2022-11-02T08:49:35;24.93;;;12.73;;
239;SDS011;104;53.590;10.004;2022-11-02T08:52:02;21.53;;;12.13;;
239;SDS011;104;53.590;10.004;2022-11-02T08:54:33;23.43;;;14.40;;
239;SDS011;104;53.590;10.004;2022-11-02T08:57:24;26.80;;;13.53;;
239;SDS011;104;53.590;10.004;2022-11-02T09:00:05;29.60;;;14.40;;
239;SDS011;104;53.590;10.004;2022-11-02T09:02:57;24.20;;;13.60;;
239;SDS011;104;53.590;10.004;2022-11-02T09:05:35;23.33;;;13.73;;
239;SDS011;104;53.590;10.004;2022-11-02T09:08:04;23.43;;;13.63;;
239;SDS011;104;53.590;10.004;2022-11-02T09:10:46;23.53;;;13.20;;
239;SDS011;104;53.590;10.004;2022-11-02T09:13:32;24.20;;;12.63;;
239;SDS011;104;53.590;10.004;2022-11-02T09:16:01;20.37;;;11.67;;
239;SDS011;104;53.590;10.004;2022-11-02T09:18:32;20.73;;;11.50;;
239;SDS011;104;53.590;10.004;2022-11-02T09:21:09;27.53;;;13.77;;
239;SDS011;104;53.590;10.004;2022-11-02T09:23:50;28.73;;;12.90;;
239;SDS011;104;53.590;10.004;2022-11-02T09:26:32;35.77;;;13.10;;
239;SDS011;104;53.590;10.004;2022-11-02T09:29:23;19.07;;;10.17;;
239;SDS011;104;53.590;10.004;2022-11-02T09:32:04;25.60;;;10.23;;
239;SDS011;104;53.590;10.004;2022-11-02T09:34:50;22.60;;;10.33;;
239;SDS011;104;53.590;10.004;2022-11-02T09:48:09;15.70;;;8.30;;
239;SDS011;104;53.590;10.004;2022-11-02T09:50:43;18.63;;;8.53;;
239;SDS011;104;53.590;10.004;2022-11-02T09:53:16;15.93;;;9.67;;
239;SDS011;104;53.590;10.004;2022-11-02T09:55:48;19.27;;;10.00;;
239;SDS011;104;53.590;10.004;2022-11-02T09:58:19;17.27;;;8.93;;
239;SDS011;104;53.590;10.004;2022-11-02T10:00:50;12.33;;;7.20;;
239;SDS011;104;53.590;10.004;2022-11-02T10:12:14;6.50;;;5.03;;
239;SDS011;104;53.590;10.004;2022-11-02T10:14:50;10.97;;;5.23;;
239;SDS011;104;53.590;10.004;2022-11-02T10:17:23;12.77;;;4.80;;
239;SDS011;104;53.590;10.004;2022-11-02T10:20:06;7.93;;;4.90;;
239;SDS011;104;53.590;10.004;2022-11-02T10:22:50;9.03;;;4.80;;
239;SDS011;104;53.590;10.004;2022-11-02T10:25:35;8.53;;;4.73;;
239;SDS011;104;53.590;10.004;2022-11-02T10:33:56;7.10;;;4.90;;
239;SDS011;104;53.590;10.004;2022-11-02T10:36:32;8.93;;;5.23;;
239;SDS011;104;53.590;10.004;2022-11-02T10:39:12;8.20;;;3.90;;
239;SDS011;104;53.590;10.004;2022-11-02T10:41:49;9.83;;;3.83;;
239;SDS011;104;53.590;10.004;2022-11-02T10:44:31;7.93;;;4.30;;
239;SDS011;104;53.590;10.004;2022-11-02T10:47:13;7.33;;;4.10;;
239;SDS011;104;53.590;10.004;2022-11-02T10:52:55;13.33;;;3.23;;
239;SDS011;104;53.590;10.004;2022-11-02T10:55:28;7.77;;;3.47;;
239;SDS011;104;53.590;10.004;2022-11-02T10:58:02;5.93;;;3.00;;
239;SDS011;104;53.590;10.004;2022-11-02T11:00:32;8.67;;;3.70;;
239;SDS011;104;53.590;10.004;2022-11-02T11:03:01;11.47;;;3.63;;
239;SDS011;104;53.590;10.004;2022-11-02T11:05:41;8.77;;;3.47;;
239;SDS011;104;53.590;10.004;2022-11-02T11:08:34;5.50;;;3.53;;
239;SDS011;104;53.590;10.004;2022-11-02T11:11:12;7.63;;;3.97;;
239;SDS011;104;53.590;10.004;2022-11-02T11:13:52;9.93;;;4.20;;
239;SDS011;104;53.590;10.004;2022-11-02T11:16:35;8.80;;;3.83;;
239;SDS011;104;53.590;10.004;2022-11-02T11:19:18;11.00;;;4.00;;
239;SDS011;104;53.590;10.004;2022-11-02T11:21:49;12.00;;;4.43;;
239;SDS011;104;53.590;10.004;2022-11-02T11:24:20;10.23;;;3.93;;
239;SDS011;104;53.590;10.004;2022-11-02T11:26:58;11.53;;;5.40;;
239;SDS011;104;53.590;10.004;2022-11-02T11:29:29;10.33;;;4.30;;
239;SDS011;104;53.590;10.004;2022-11-02T11:31:57;8.37;;;4.00;;
239;SDS011;104;53.590;10.004;2022-11-02T11:34:25;16.03;;;4.70;;
239;SDS011;104;53.590;10.004;2022-11-02T11:37:04;10.00;;;4.77;;
239;SDS011;104;53.590;10.004;2022-11-02T11:39:33;8.23;;;3.77;;
239;SDS011;104;53.590;10.004;2022-11-02T11:42:03;14.03;;;4.30;;
239;SDS011;104;53.590;10.004;2022-11-02T11:44:32;8.63;;;3.43;;
239;SDS011;104;53.590;10.004;2022-11-02T11:47:00;19.37;;;4.53;;
239;SDS011;104;53.590;10.004;2022-11-02T11:49:29;6.90;;;3.13;;
239;SDS011;104;53.590;10.004;2022-11-02T11:51:58;10.67;;;3.77;;
239;SDS011;104;53.590;10.004;2022-11-02T11:54:29;5.60;;;3.87;;
239;SDS011;104;53.590;10.004;2022-11-02T11:56:57;8.93;;;3.37;;
239;SDS011;104;53.590;10.004;2022-11-02T11:59:29;14.57;;;5.00;;
239;SDS011;104;53.590;10.004;2022-11-02T12:02:18;8.23;;;4.30;;
239;SDS011;104;53.590;10.004;2022-11-02T12:04:48;8.33;;;4.60;;
239;SDS011;104;53.590;10.004;2022-11-02T12:07:22;15.33;;;4.50;;
239;SDS011;104;53.590;10.004;2022-11-02T12:10:04;11.50;;;3.53;;
239;SDS011;104;53.590;10.004;2022-11-02T12:12:47;6.73;;;3.43;;
239;SDS011;104;53.590;10.004;2022-11-02T12:15:40;7.57;;;3.93;;
239;SDS011;104;53.590;10.004;2022-11-02T12:18:22;6.00;;;3.47;;
239;SDS011;104;53.590;10.004;2022-11-02T12:21:12;7.17;;;3.83;;
239;SDS011;104;53.590;10.004;2022-11-02T12:26:49;6.23;;;3.07;;
239;SDS011;104;53.590;10.004;2022-11-02T12:29:40;7.80;;;4.50;;
239;SDS011;104;53.590;10.004;2022-11-02T12:32:27;6.90;;;3.43;;
239;SDS011;104;53.590;10.004;2022-11-02T12:35:17;9.93;;;3.73;;
239;SDS011;104;53.590;10.004;2022-11-02T12:37:55;14.10;;;5.87;;
239;SDS011;104;53.590;10.004;2022-11-02T12:40:46;11.43;;;3.37;;
239;SDS011;104;53.590;10.004;2022-11-02T12:43:27;8.30;;;3.33;;
239;SDS011;104;53.590;10.004;2022-11-02T12:46:04;8.13;;;4.00;;
239;SDS011;104;53.590;10.004;2022-11-02T12:48:41;8.30;;;4.40;;
239;SDS011;104;53.590;10.004;2022-11-02T12:51:15;7.23;;;3.50;;
239;SDS011;104;53.590;10.004;2022-11-02T12:53:53;11.63;;;5.27;;
239;SDS011;104;53.590;10.004;2022-11-02T12:56:24;8.97;;;3.83;;
239;SDS011;104;53.590;10.004;2022-11-02T12:59:08;10.00;;;4.40;;
239;SDS011;104;53.590;10.004;2022-11-02T13:01:52;6.87;;;3.37;;
239;SDS011;104;53.590;10.004;2022-11-02T13:04:27;10.33;;;4.07;;
239;SDS011;104;53.590;10.004;2022-11-02T13:07:08;8.30;;;3.67;;
239;SDS011;104;53.590;10.004;2022-11-02T13:09:42;14.33;;;3.43;;
239;SDS011;104;53.590;10.004;2022-11-02T13:12:15;10.60;;;5.50;;
239;SDS011;104;53.590;10.004;2022-11-02T13:14:54;8.60;;;4.07;;
239;SDS011;104;53.590;10.004;2022-11-02T13:17:25;9.63;;;4.57;;
239;SDS011;104;53.590;10.004;2022-11-02T13:20:03;12.50;;;3.70;;
239;SDS011;104;53.590;10.004;2022-11-02T13:22:39;15.17;;;3.70;;
239;SDS011;104;53.590;10.004;2022-11-02T13:25:14;10.60;;;3.77;;
239;SDS011;104;53.590;10.004;2022-11-02T13:27:46;9.70;;;3.43;;
239;SDS011;104;53.590;10.004;2022-11-02T13:30:22;10.00;;;4.50;;
239;SDS011;104;53.590;10.004;2022-11-02T13:32:51;12.33;;;4.57;;
239;SDS011;104;53.590;10.004;2022-11-02T13:35:25;18.03;;;4.90;;
239;SDS011;104;53.590;10.004;2022-11-02T13:37:56;9.43;;;3.63;;
239;SDS011;104;53.590;10.004;2022-11-02T13:40:28;7.80;;;3.50;;
239;SDS011;104;53.590;10.004;2022-11-02T13:43:25;12.53;;;3.73;;
239;SDS011;104;53.590;10.004;2022-11-02T13:46:22;11.87;;;6.03;;
239;SDS011;104;53.590;10.004;2022-11-02T13:49:12;9.27;;;4.20;;
239;SDS011;104;53.590;10.004;2022-11-02T13:51:42;5.67;;;3.43;;
239;SDS011;104;53.590;10.004;2022-11-02T13:54:15;6.63;;;3.60;;
239;SDS011;104;53.590;10.004;2022-11-02T13:56:55;8.73;;;3.20;;
239;SDS011;104;53.590;10.004;2022-11-02T13:59:26;8.40;;;3.10;;
239;SDS011;104;53.590;10.004;2022-11-02T14:01:58;7.90;;;4.13;;
239;SDS011;104;53.590;10.004;2022-11-02T14:04:35;6.43;;;2.77;;
239;SDS011;104;53.590;10.004;2022-11-02T14:07:06;9.27;;;3.13;;
239;SDS011;104;53.590;10.004;2022-11-02T14:09:45;9.30;;;2.70;;
239;SDS011;104;53.590;10.004;2022-11-02T14:12:28;16.50;;;4.87;;
239;SDS011;104;53.590;10.004;2022-11-02T14:18:14;6.70;;;3.30;;
239;SDS011;104;53.590;10.004;2022-11-02T14:20:47;10.30;;;3.50;;
239;SDS011;104;53.590;10.004;2022-11-02T14:23:37;9.63;;;4.43;;
239;SDS011;104;53.590;10.004;2022-11-02T14:29:02;5.80;;;3.50;;
239;SDS011;104;53.590;10.004;2022-11-02T14:31:58;4.73;;;3.30;;
239;SDS011;104;53.590;10.004;2022-11-02T14:34:39;12.33;;;3.80;;
239;SDS011;104;53.590;10.004;2022-11-02T14:37:22;7.83;;;3.50;;
239;SDS011;104;53.590;10.004;2022-11-02T14:40:00;11.27;;;3.70;;
239;SDS011;104;53.590;10.004;2022-11-02T14:42:45;14.63;;;3.00;;
239;SDS011;104;53.590;10.004;2022-11-02T14:45:32;8.87;;;3.77;;
239;SDS011;104;53.590;10.004;2022-11-02T14:48:17;10.80;;;3.27;;
239;SDS011;104;53.590;10.004;2022-11-02T14:50:59;16.57;;;3.30;;
239;SDS011;104;53.590;10.004;2022-11-02T14:53:33;7.03;;;3.20;;
239;SDS011;104;53.590;10.004;2022-11-02T14:56:04;7.53;;;3.23;;
239;SDS011;104;53.590;10.004;2022-11-02T14:58:34;9.43;;;3.30;;
239;SDS011;104;53.590;10.004;2022-11-02T15:01:11;14.43;;;4.90;;
239;SDS011;104;53.590;10.004;2022-11-02T15:03:41;6.60;;;3.43;;
239;SDS011;104;53.590;10.004;2022-11-02T15:06:24;6.80;;;3.37;;
239;SDS011;104;53.590;10.004;2022-11-02T15:09:08;17.73;;;4.73;;
239;SDS011;104;53.590;10.004;2022-11-02T15:11:49;7.70;;;3.20;;
239;SDS011;104;53.590;10.004;2022-11-02T15:14:49;5.97;;;3.40;;
239;SDS011;104;53.590;10.004;2022-11-02T15:20:32;10.27;;;5.60;;
239;SDS011;104;53.590;10.004;2022-11-02T15:23:10;11.30;;;4.20;;
239;SDS011;104;53.590;10.004;2022-11-02T15:25:46;13.60;;;5.40;;
239;SDS011;104;53.590;10.004;2022-11-02T15:28:16;14.50;;;4.70;;
239;SDS011;104;53.590;10.004;2022-11-02T15:30:48;14.63;;;4.87;;
239;SDS011;104;53.590;10.004;2022-11-02T15:33:20;8.77;;;3.83;;
239;SDS011;104;53.590;10.004;2022-11-02T15:35:54;10.50;;;4.30;;
239;SDS011;104;53.590;10.004;2022-11-02T15:38:25;12.70;;;4.37;;
239;SDS011;104;53.590;10.004;2022-11-02T15:40:55;8.27;;;4.10;;
239;SDS011;104;53.590;10.004;2022-11-02T15:46:37;9.53;;;3.60;;
239;SDS011;104;53.590;10.004;2022-11-02T15:49:16;19.93;;;3.80;;
239;SDS011;104;53.590;10.004;2022-11-02T15:51:59;7.93;;;3.67;;
239;SDS011;104;53.590;10.004;2022-11-02T15:54:40;11.10;;;3.87;;
239;SDS011;104;53.590;10.004;2022-11-02T15:57:17;7.17;;;3.30;;
239;SDS011;104;53.590;10.004;2022-11-02T16:00:14;14.37;;;3.67;;
239;SDS011;104;53.590;10.004;2022-11-02T16:02:44;10.80;;;4.00;;
239;SDS011;104;53.590;10.004;2022-11-02T16:05:17;8.90;;;3.50;;
239;SDS011;104;53.590;10.004;2022-11-02T16:07:48;8.67;;;3.87;;
239;SDS011;104;53.590;10.004;2022-11-02T16:10:26;10.83;;;4.60;;
239;SDS011;104;53.590;10.004;2022-11-02T16:12:55;18.00;;;5.10;;
239;SDS011;104;53.590;10.004;2022-11-02T16:15:24;10.50;;;4.50;;
239;SDS011;104;53.590;10.004;2022-11-02T16:17:54;15.20;;;5.23;;
239;SDS011;104;53.590;10.004;2022-11-02T16:20:24;12.10;;;5.07;;
239;SDS011;104;53.590;10.004;2022-11-02T16:22:54;10.10;;;5.53;;
239;SDS011;104;53.590;10.004;2022-11-02T16:25:30;14.80;;;6.07;;
239;SDS011;104;53.590;10.004;2022-11-02T16:28:10;15.10;;;6.10;;
239;SDS011;104;53.590;10.004;2022-11-02T16:30:40;13.87;;;5.80;;
239;SDS011;104;53.590;10.004;2022-11-02T16:33:21;17.07;;;7.17;;
239;SDS011;104;53.590;10.004;2022-11-02T16:35:59;16.80;;;6.43;;
239;SDS011;104;53.590;10.004;2022-11-02T16:38:27;22.50;;;8.77;;
239;SDS011;104;53.590;10.004;2022-11-02T16:41:16;9.50;;;6.30;;
239;SDS011;104;53.590;10.004;2022-11-02T16:43:48;13.33;;;5.73;;
239;SDS011;104;53.590;10.004;2022-11-02T16:46:27;11.27;;;5.37;;
239;SDS011;104;53.590;10.004;2022-11-02T16:48:59;9.17;;;5.50;;
239;SDS011;104;53.590;10.004;2022-11-02T16:51:39;13.30;;;5.90;;
239;SDS011;104;53.590;10.004;2022-11-02T16:54:16;19.97;;;6.67;;
239;SDS011;104;53.590;10.004;2022-11-02T16:56:50;16.90;;;5.80;;
239;SDS011;104;53.590;10.004;2022-11-02T16:59:19;22.47;;;7.30;;
239;SDS011;104;53.590;10.004;2022-11-02T17:01:49;20.57;;;6.27;;
239;SDS011;104;53.590;10.004;2022-11-02T17:04:18;16.77;;;6.27;;
239;SDS011;104;53.590;10.004;2022-11-02T17:06:47;26.57;;;6.40;;
239;SDS011;104;53.590;10.004;2022-11-02T17:09:19;17.83;;;6.60;;
239;SDS011;104;53.590;10.004;2022-11-02T17:11:59;15.20;;;6.47;;
239;SDS011;104;53.590;10.004;2022-11-02T17:14:32;17.70;;;6.43;;